Time;durP1;ratioP1;P1;durP2;ratioP2;P2;SDS_P1;SDS_P2;PMS_P1;PMS_P2;Temp;Humidity;BMP_temperature;BMP_pressure;BME280_temperature;BME280_humidity;BME280_pressure;Samples;Min_cycle;Max_cycle;Signal;HPM_P1;HPM_P2
2021/12/16 00:01:59;;;;;;;30.60;18.87;;;;;;;1.81;82.28;101661.48;1758023;81;20931;-68
2021/12/16 00:31:48;;;;;;;32.13;18.82;;;;;;;1.69;82.29;101685.70;1757971;81;20909;-69
2021/12/16 00:34:04;;;;;;;;;;;;;;;1.71;82.24;101679.20;1758909;80;20975;-70
2021/12/16 00:36:35;;;;;;;35.30;19.95;;;;;;;1.70;82.18;101685.25;1741038;81;21066;-69
2021/12/16 00:39:06;;;;;;;41.80;22.52;;;;;;;1.66;82.06;101677.50;1757651;81;20893;-69
2021/12/16 00:41:34;;;;;;;43.87;20.90;;;;;;;1.65;82.11;101672.36;1743955;81;21126;-69
2021/12/16 00:44:19;;;;;;;39.53;20.68;;;;;;;1.61;82.04;101678.41;1744503;81;20886;-69
2021/12/16 00:46:57;;;;;;;42.58;21.15;;;;;;;1.58;82.15;101671.95;1743063;81;20944;-69
2021/12/16 00:49:21;;;;;;;44.03;22.75;;;;;;;1.53;82.32;101677.14;1743037;81;21572;-69
2021/12/16 00:54:19;;;;;;;35.85;20.27;;;;;;;1.51;82.56;101675.00;1744979;81;20928;-70
2021/12/16 00:56:54;;;;;;;39.63;20.30;;;;;;;1.54;82.61;101669.83;1744466;81;21445;-69
2021/12/16 00:59:20;;;;;;;43.35;21.87;;;;;;;1.57;82.66;101672.83;1744689;81;20916;-70
2021/12/16 01:07:45;;;;;;;44.25;21.10;;;;;;;1.63;82.45;101670.21;1744733;81;21339;-71
2021/12/16 01:33:34;;;;;;;48.68;23.40;;;;;;;1.66;82.36;101663.72;1743065;80;20928;-70
2021/12/16 01:40:14;;;;;;;45.85;24.18;;;;;;;1.65;82.35;101673.66;1744413;81;20976;-70
2021/12/16 01:50:32;;;;;;;55.80;25.60;;;;;;;1.51;82.29;101689.21;1744546;81;20148;-70
2021/12/16 01:55:59;;;;;;;44.42;22.27;;;;;;;1.47;82.53;101691.83;1744707;81;21166;-69
2021/12/16 01:58:21;;;;;;;51.58;26.40;;;;;;;1.45;82.56;101697.03;1742517;81;21379;-70
2021/12/16 02:01:16;;;;;;;46.75;22.30;;;;;;;1.45;82.53;101701.75;1744530;81;20968;-69
2021/12/16 02:03:46;;;;;;;50.65;23.67;;;;;;;1.44;82.64;101694.84;1744645;81;20964;-69
2021/12/16 02:08:54;;;;;;;47.33;22.35;;;;;;;1.42;82.41;101698.31;1744591;81;21101;-69
2021/12/16 02:28:30;;;;;;;46.00;23.85;;;;;;;1.34;82.31;101689.76;1744595;81;20889;-68
2021/12/16 02:36:25;;;;;;;39.25;23.00;;;;;;;1.26;82.50;101669.10;1744636;80;21126;-69
2021/12/16 02:38:45;;;;;;;38.38;22.13;;;;;;;1.26;82.49;101660.50;1743076;81;20973;-69
2021/12/16 02:41:13;;;;;;;43.87;21.33;;;;;;;1.22;82.56;101663.11;1752925;81;20877;-69
2021/12/16 02:49:11;;;;;;;41.88;22.13;;;;;;;1.33;82.69;101660.89;1757979;81;21165;-69
2021/12/16 02:51:38;;;;;;;38.83;21.82;;;;;;;1.36;82.56;101656.58;1757702;81;21422;-70
2021/12/16 02:54:05;;;;;;;40.48;22.27;;;;;;;1.41;82.39;101663.02;1758024;80;21078;-69
2021/12/16 02:56:34;;;;;;;40.35;21.57;;;;;;;1.44;82.26;101666.86;1757798;81;20866;-69
2021/12/16 02:59:01;;;;;;;36.75;21.70;;;;;;;1.47;82.14;101668.56;1757818;81;20881;-69
2021/12/16 03:01:42;;;;;;;39.73;21.65;;;;;;;1.50;81.93;101668.13;1758102;80;22184;-70
2021/12/16 03:04:13;;;;;;;36.60;21.17;;;;;;;1.50;81.87;101664.25;1758179;81;20880;-70
2021/12/16 03:06:43;;;;;;;33.65;19.30;;;;;;;1.49;81.87;101672.89;1758036;81;21375;-69
2021/12/16 03:09:16;;;;;;;41.73;23.57;;;;;;;1.48;81.56;101662.55;1758243;80;21494;-70
2021/12/16 03:12:16;;;;;;;42.13;22.50;;;;;;;1.44;81.59;101663.84;1758154;81;20948;-69
2021/12/16 03:19:38;;;;;;;41.75;22.05;;;;;;;1.56;81.84;101672.42;1758086;80;20924;-70
2021/12/16 03:21:56;;;;;;;;;;;;;;;1.55;81.48;101671.53;1758703;81;21422;-69
2021/12/16 03:30:00;;;;;;;40.63;22.70;;;;;;;1.55;81.48;101674.12;1740808;81;20924;-69
2021/12/16 03:32:24;;;;;;;44.38;23.62;;;;;;;1.54;81.53;101677.59;1755683;80;21589;-67
2021/12/16 03:35:02;;;;;;;39.78;21.75;;;;;;;1.56;81.59;101681.02;1756219;81;20963;-68
2021/12/16 03:37:26;;;;;;;37.33;20.80;;;;;;;1.56;81.28;101683.61;1757652;81;20963;-71
2021/12/16 03:40:09;;;;;;;38.67;20.05;;;;;;;1.52;81.05;101670.71;1740730;81;21100;-70
2021/12/16 03:42:54;;;;;;;39.95;22.60;;;;;;;1.47;81.02;101677.61;1757930;80;21342;-70
2021/12/16 03:48:34;;;;;;;35.45;19.95;;;;;;;1.54;81.08;101674.16;1755626;81;20900;-69
2021/12/16 03:51:06;;;;;;;30.57;18.40;;;;;;;1.57;80.76;101678.00;1751631;81;20944;-70
2021/12/16 03:53:33;;;;;;;36.88;19.95;;;;;;;1.56;80.40;101679.73;1757989;81;21112;-70
2021/12/16 03:56:00;;;;;;;35.95;21.20;;;;;;;1.56;80.31;101684.91;1757929;80;20888;-69
2021/12/16 03:58:29;;;;;;;37.28;20.32;;;;;;;1.57;80.44;101691.77;1740978;81;20928;-70
2021/12/16 04:00:59;;;;;;;38.38;21.30;;;;;;;1.56;80.40;101690.07;1758155;80;21417;-70
2021/12/16 04:03:26;;;;;;;36.25;20.45;;;;;;;1.56;80.35;101689.22;1757937;81;21977;-70
2021/12/16 04:05:53;;;;;;;39.65;20.32;;;;;;;1.53;80.26;101693.95;1741148;81;21857;-69
2021/12/16 04:08:20;;;;;;;33.73;19.20;;;;;;;1.53;80.19;101694.39;1757815;81;20920;-70
2021/12/16 04:11:05;;;;;;;35.68;18.92;;;;;;;1.55;80.18;101700.41;1758061;81;21007;-71
2021/12/16 04:13:41;;;;;;;34.98;18.67;;;;;;;1.51;79.84;101694.39;1757943;80;20935;-69
2021/12/16 04:16:04;;;;;;;31.80;19.77;;;;;;;1.48;79.92;101697.44;1757690;81;20967;-72
2021/12/16 04:18:32;;;;;;;34.80;21.30;;;;;;;1.43;80.09;101700.90;1757915;80;21161;-69
2021/12/16 04:21:00;;;;;;;34.98;19.62;;;;;;;1.40;80.17;101698.75;1757854;80;20927;-69
2021/12/16 04:23:27;;;;;;;34.53;19.37;;;;;;;1.38;80.28;101696.20;1757970;80;21461;-70
2021/12/16 04:25:55;;;;;;;31.57;19.48;;;;;;;1.37;80.21;101689.73;1757855;81;20959;-69
2021/12/16 04:28:25;;;;;;;37.13;21.05;;;;;;;1.30;80.18;101700.53;1757845;80;21327;-71
2021/12/16 04:30:53;;;;;;;33.02;20.95;;;;;;;1.26;80.30;101703.13;1758179;81;21104;-68
2021/12/16 04:33:20;;;;;;;35.78;20.08;;;;;;;1.22;80.38;101695.41;1757922;81;20923;-69
2021/12/16 04:35:48;;;;;;;39.55;20.65;;;;;;;1.24;80.39;101702.72;1758186;80;21414;-70
2021/12/16 04:38:15;;;;;;;34.88;20.97;;;;;;;1.24;80.53;101703.12;1757811;81;20892;-69
2021/12/16 04:40:45;;;;;;;36.45;20.92;;;;;;;1.26;80.50;101704.42;1757635;80;21020;-70
2021/12/16 04:43:18;;;;;;;34.78;18.67;;;;;;;1.24;80.57;101716.05;1757879;81;22167;-70
2021/12/16 04:45:45;;;;;;;34.67;18.00;;;;;;;1.23;80.80;101703.57;1757397;80;20991;-70
2021/12/16 04:48:12;;;;;;;35.20;19.57;;;;;;;1.22;80.70;101703.16;1758131;81;21386;-70
2021/12/16 04:50:41;;;;;;;33.95;19.32;;;;;;;1.22;80.81;101697.11;1758127;81;21370;-69
2021/12/16 04:53:10;;;;;;;39.80;22.35;;;;;;;1.22;80.73;101693.23;1757846;80;21366;-69
2021/12/16 04:55:38;;;;;;;38.20;21.45;;;;;;;1.21;80.67;101687.21;1758294;81;21715;-70
2021/12/16 04:58:06;;;;;;;40.78;21.82;;;;;;;1.24;80.59;101683.75;1758720;81;20983;-71
2021/12/16 05:00:33;;;;;;;38.05;22.65;;;;;;;1.26;80.61;101678.14;1758176;81;20877;-71
2021/12/16 05:03:06;;;;;;;42.58;21.25;;;;;;;1.24;80.63;101683.75;1756871;81;20935;-70
2021/12/16 05:05:38;;;;;;;32.75;20.00;;;;;;;1.23;80.53;101683.34;1758174;81;20888;-68
2021/12/16 05:08:05;;;;;;;28.62;18.10;;;;;;;1.22;80.33;101689.36;1757863;81;21807;-70
2021/12/16 05:10:37;;;;;;;32.70;20.82;;;;;;;1.18;80.26;101688.53;1757990;81;21461;-69
2021/12/16 05:13:07;;;;;;;34.30;18.98;;;;;;;1.14;80.31;101688.11;1757736;81;20991;-69
2021/12/16 05:15:38;;;;;;;37.42;21.23;;;;;;;1.14;80.85;101691.98;1774877;80;20990;-69
2021/12/16 05:18:08;;;;;;;34.58;19.07;;;;;;;1.16;80.94;101681.22;1789564;80;20935;-69
2021/12/16 05:20:41;;;;;;;35.10;19.60;;;;;;;1.16;81.05;101684.23;1789866;80;21116;-70
2021/12/16 05:28:49;;;;;;;32.05;16.93;;;;;;;1.08;80.86;101683.39;1762990;80;20959;-71
2021/12/16 05:31:17;;;;;;;37.20;18.05;;;;;;;1.05;80.96;101688.58;1748565;82;20967;-70
2021/12/16 05:33:46;;;;;;;34.33;18.07;;;;;;;1.03;80.95;101683.41;1733447;82;21674;-70
2021/12/16 05:36:13;;;;;;;28.67;16.40;;;;;;;1.02;81.06;101692.02;1752351;82;20881;-71
2021/12/16 05:38:40;;;;;;;31.55;17.48;;;;;;;1.02;81.10;101694.19;1752253;82;20928;-71
2021/12/16 05:41:09;;;;;;;29.65;16.75;;;;;;;1.02;81.15;101694.19;1746635;82;20995;-71
2021/12/16 05:43:38;;;;;;;31.73;15.83;;;;;;;1.00;81.16;101692.44;1725438;83;21017;-71
2021/12/16 05:46:06;;;;;;;32.73;17.10;;;;;;;0.96;81.08;101688.18;1725396;83;21560;-72
2021/12/16 05:48:37;;;;;;;27.82;14.20;;;;;;;0.91;80.99;101690.78;1780563;80;20916;-71
2021/12/16 05:51:09;;;;;;;32.28;16.70;;;;;;;0.87;81.10;101683.90;1743715;82;20979;-72
2021/12/16 05:53:37;;;;;;;30.92;15.72;;;;;;;0.86;81.23;101690.34;1743575;82;20960;-71
2021/12/16 05:56:06;;;;;;;29.63;15.43;;;;;;;0.82;81.38;101680.04;1717173;82;20977;-71
2021/12/16 05:58:34;;;;;;;27.42;15.00;;;;;;;0.83;81.52;101683.47;1780659;80;21182;-71
2021/12/16 06:01:07;;;;;;;31.15;15.88;;;;;;;0.86;81.53;101683.89;1780656;79;20903;-70
2021/12/16 06:03:35;;;;;;;26.30;14.47;;;;;;;0.88;81.59;101684.75;1780576;80;20916;-70
2021/12/16 06:06:03;;;;;;;29.57;15.32;;;;;;;0.91;81.61;101680.45;1780443;79;21450;-70
2021/12/16 06:08:30;;;;;;;27.13;14.40;;;;;;;0.92;81.46;101678.72;1780694;80;20900;-71
2021/12/16 06:13:40;;;;;;;23.30;13.68;;;;;;;0.89;81.30;101682.17;1780404;80;21460;-71
2021/12/16 06:27:14;;;;;;;27.95;15.60;;;;;;;0.86;81.62;101677.44;1743515;82;20923;-70
2021/12/16 06:29:44;;;;;;;23.60;13.62;;;;;;;0.87;81.54;101679.14;1717472;82;21008;-70
2021/12/16 06:32:12;;;;;;;27.45;15.68;;;;;;;0.90;81.55;101676.12;1780633;79;20895;-69
2021/12/16 06:34:39;;;;;;;24.67;13.83;;;;;;;0.92;81.45;101670.53;1743515;82;20947;-70
2021/12/16 06:37:06;;;;;;;29.92;15.38;;;;;;;0.94;81.43;101665.38;1743532;81;21090;-70
2021/12/16 06:39:33;;;;;;;24.23;14.38;;;;;;;0.94;81.36;101664.08;1717254;83;21010;-69
2021/12/16 06:42:06;;;;;;;26.37;16.42;;;;;;;0.95;81.40;101669.22;1779153;79;20852;-69
2021/12/16 06:44:41;;;;;;;26.82;16.05;;;;;;;1.00;81.26;101671.38;1784320;80;20939;-69
2021/12/16 06:47:10;;;;;;;23.80;14.43;;;;;;;1.04;81.30;101670.91;1786268;80;20950;-70
2021/12/16 06:49:37;;;;;;;24.35;15.32;;;;;;;1.06;81.09;101674.35;1786076;80;21998;-69
2021/12/16 06:52:06;;;;;;;23.87;14.50;;;;;;;1.06;81.17;101678.67;1786568;80;20829;-70
2021/12/16 06:56:11;;;;;;;26.50;14.80;;;;;;;1.10;81.23;101673.92;1798553;79;22461;-69
2021/12/16 06:58:50;;;;;;;22.05;14.13;;;;;;;1.07;81.34;101673.91;1757971;81;20999;-69
2021/12/16 07:01:27;;;;;;;24.77;14.20;;;;;;;1.09;81.39;101674.36;1756352;81;21116;-70
2021/12/16 07:03:49;;;;;;;22.13;14.15;;;;;;;1.11;81.27;101680.38;1755369;81;20912;-72
2021/12/16 07:06:26;;;;;;;23.38;14.33;;;;;;;1.11;80.99;101683.38;1758282;81;21367;-70
2021/12/16 07:08:58;;;;;;;23.95;14.65;;;;;;;1.08;80.98;101691.14;1758172;80;21318;-70
2021/12/16 07:11:25;;;;;;;26.40;14.68;;;;;;;1.05;81.06;101695.05;1758240;81;21003;-71
2021/12/16 07:13:58;;;;;;;21.35;14.13;;;;;;;1.00;81.18;101701.48;1758259;81;21562;-71
2021/12/16 07:16:27;;;;;;;25.52;15.18;;;;;;;0.95;81.10;101703.23;1758118;80;21449;-71
2021/12/16 07:18:55;;;;;;;24.15;14.63;;;;;;;0.95;81.20;101713.56;1758136;81;20920;-71
2021/12/16 07:21:23;;;;;;;23.80;13.95;;;;;;;0.96;81.16;101710.13;1758056;81;20983;-70
2021/12/16 07:23:51;;;;;;;23.77;15.28;;;;;;;0.99;81.14;101711.41;1758220;81;20920;-71
2021/12/16 07:26:18;;;;;;;23.07;14.65;;;;;;;1.05;81.25;101711.39;1758259;80;21494;-69
2021/12/16 07:28:48;;;;;;;24.02;14.70;;;;;;;1.10;81.27;101716.55;1758209;81;20911;-70
2021/12/16 07:31:15;;;;;;;20.52;14.40;;;;;;;1.11;81.17;101716.55;1758360;81;20963;-71
2021/12/16 07:33:42;;;;;;;26.10;15.93;;;;;;;1.12;80.91;101705.34;1758187;80;20932;-71
2021/12/16 07:36:10;;;;;;;22.82;13.00;;;;;;;1.07;80.82;101711.37;1758261;80;21346;-69
2021/12/16 07:38:38;;;;;;;23.83;15.65;;;;;;;1.07;80.73;101713.54;1758227;81;21827;-69
2021/12/16 07:41:05;;;;;;;18.92;13.58;;;;;;;1.04;80.56;101717.41;1758108;80;20931;-69
2021/12/16 07:46:17;;;;;;;;;;;;;;;1.03;80.71;101719.13;1760963;81;20936;-69
2021/12/16 07:48:44;;;;;;;20.20;12.40;;;;;;;1.08;80.58;101714.39;1758374;81;20381;-69
2021/12/16 07:51:11;;;;;;;20.70;14.45;;;;;;;1.07;80.41;101720.00;1758243;80;21816;-68
2021/12/16 07:53:38;;;;;;;17.02;12.65;;;;;;;1.10;80.23;101725.58;1758037;81;20916;-69
2021/12/16 07:56:06;;;;;;;14.23;10.23;;;;;;;1.13;80.12;101729.00;1746017;81;20881;-69
2021/12/16 07:58:33;;;;;;;13.62;10.32;;;;;;;1.16;79.93;101723.84;1745060;81;21319;-73
2021/12/16 08:01:00;;;;;;;14.20;10.10;;;;;;;1.17;79.64;101729.42;1745206;82;20889;-70
2021/12/16 08:03:34;;;;;;;14.83;10.35;;;;;;;1.18;79.55;101727.28;1745086;81;21172;-72
2021/12/16 08:05:59;;;;;;;12.58;8.70;;;;;;;1.19;79.33;101728.98;1744358;81;20920;-71
2021/12/16 08:08:26;;;;;;;16.93;10.72;;;;;;;1.21;79.17;101721.23;1744483;80;20932;-72
2021/12/16 08:10:53;;;;;;;13.95;10.32;;;;;;;1.20;78.84;101716.52;1744491;82;20905;-71
2021/12/16 08:13:21;;;;;;;10.38;8.60;;;;;;;1.22;78.71;101717.77;1744687;82;20846;-72
2021/12/16 08:15:48;;;;;;;9.85;8.65;;;;;;;1.22;78.52;101713.90;1744593;80;22008;-71
2021/12/16 08:18:17;;;;;;;12.20;9.08;;;;;;;1.21;78.41;101714.34;1744487;82;20893;-71
2021/12/16 08:20:44;;;;;;;11.83;9.35;;;;;;;1.20;78.29;101710.05;1744957;81;20892;-72
2021/12/16 08:23:12;;;;;;;12.15;9.83;;;;;;;1.23;78.34;101709.17;1745129;82;21454;-72
2021/12/16 08:25:40;;;;;;;10.65;8.35;;;;;;;1.30;78.40;101706.98;1745145;81;21438;-71
2021/12/16 08:28:10;;;;;;;9.40;7.90;;;;;;;1.37;78.23;101711.70;1745325;81;21538;-71
2021/12/16 08:30:42;;;;;;;9.58;7.90;;;;;;;1.39;77.91;101705.65;1745194;81;20881;-73
2021/12/16 08:33:11;;;;;;;11.25;8.83;;;;;;;1.39;77.76;101702.22;1745141;81;20889;-70
2021/12/16 08:35:42;;;;;;;11.88;8.80;;;;;;;1.37;77.74;101705.23;1745031;82;20972;-69
2021/12/16 08:38:12;;;;;;;11.05;8.90;;;;;;;1.36;77.79;101699.22;1744884;82;20886;-70
2021/12/16 08:40:41;;;;;;;10.55;9.40;;;;;;;1.38;77.84;101697.89;1744671;81;21137;-72
2021/12/16 08:43:09;;;;;;;11.10;9.73;;;;;;;1.43;77.93;101698.31;1744776;82;20933;-72
2021/12/16 08:45:36;;;;;;;12.35;10.20;;;;;;;1.49;77.85;101694.86;1744551;81;20932;-70
2021/12/16 08:48:03;;;;;;;11.33;9.80;;;;;;;1.50;77.83;101691.39;1744742;81;20853;-70
2021/12/16 08:50:35;;;;;;;14.63;10.20;;;;;;;1.55;77.98;101687.05;1744524;82;20861;-70
2021/12/16 08:53:02;;;;;;;12.23;10.20;;;;;;;1.61;77.85;101692.62;1744820;82;21079;-68
2021/12/16 08:55:30;;;;;;;14.13;10.65;;;;;;;1.62;77.70;101678.82;1744479;82;20965;-72
2021/12/16 08:58:00;;;;;;;15.18;10.65;;;;;;;1.66;77.71;101678.79;1744799;82;20975;-72
2021/12/16 09:00:31;;;;;;;13.90;10.95;;;;;;;1.73;77.58;101686.52;1744698;82;20921;-71
2021/12/16 09:02:58;;;;;;;12.60;10.32;;;;;;;1.73;77.25;101683.93;1744922;80;20893;-70
2021/12/16 09:05:25;;;;;;;13.32;10.30;;;;;;;1.68;77.08;101680.08;1744440;82;22033;-72
2021/12/16 09:07:52;;;;;;;11.60;9.98;;;;;;;1.61;77.07;101676.67;1744767;82;20845;-66
2021/12/16 09:10:23;;;;;;;14.40;9.75;;;;;;;1.58;77.21;101674.13;1744613;82;20972;-70
2021/12/16 09:12:54;;;;;;;12.37;10.15;;;;;;;1.64;77.39;101677.94;1744667;82;20932;-72
2021/12/16 09:15:23;;;;;;;17.02;12.73;;;;;;;1.71;77.32;101676.61;1744313;81;21304;-70
2021/12/16 09:17:53;;;;;;;16.15;12.95;;;;;;;1.73;77.07;101671.00;1734181;82;21895;-72
2021/12/16 09:20:20;;;;;;;16.70;13.80;;;;;;;1.71;77.00;101673.59;1710104;82;20865;-71
2021/12/16 09:22:47;;;;;;;15.60;13.28;;;;;;;1.71;76.94;101671.00;1744767;82;20956;-72
2021/12/16 09:25:14;;;;;;;16.77;13.03;;;;;;;1.73;76.87;101668.42;1744511;82;20937;-73
2021/12/16 09:27:42;;;;;;;14.23;11.65;;;;;;;1.76;76.89;101668.42;1744507;80;20889;-72
2021/12/16 09:30:13;;;;;;;11.90;10.13;;;;;;;1.79;76.79;101663.21;1744479;81;21159;-71
2021/12/16 09:32:40;;;;;;;13.03;11.60;;;;;;;1.80;76.74;101665.80;1744720;82;20914;-71
2021/12/16 09:35:07;;;;;;;16.45;13.00;;;;;;;1.82;76.74;101660.59;1744452;82;21422;-71
2021/12/16 09:37:35;;;;;;;17.07;12.47;;;;;;;1.86;76.87;101655.83;1744550;81;21012;-71
2021/12/16 09:40:09;;;;;;;14.55;12.68;;;;;;;1.91;76.77;101653.20;1744505;81;20893;-72
2021/12/16 09:42:37;;;;;;;14.93;12.78;;;;;;;1.92;76.56;101648.47;1745197;82;21112;-70
2021/12/16 09:45:08;;;;;;;18.55;14.73;;;;;;;1.91;76.54;101641.56;1744374;80;20873;-73
2021/12/16 09:47:37;;;;;;;16.62;12.60;;;;;;;1.90;76.50;101638.13;1744882;81;21016;-74
2021/12/16 09:50:06;;;;;;;17.50;12.58;;;;;;;1.93;76.53;101633.36;1744481;81;20873;-73
2021/12/16 09:52:34;;;;;;;17.07;13.35;;;;;;;1.93;76.42;101629.04;1744476;81;20888;-73
2021/12/16 09:55:01;;;;;;;18.25;14.13;;;;;;;1.91;76.23;101630.78;1747176;81;21083;-72
2021/12/16 09:57:28;;;;;;;16.62;13.78;;;;;;;1.86;76.33;101623.50;1757869;81;20920;-72
2021/12/16 09:59:55;;;;;;;18.40;14.95;;;;;;;1.84;76.56;101623.94;1757964;81;21398;-71
2021/12/16 10:02:22;;;;;;;17.55;13.05;;;;;;;1.86;76.90;101617.03;1757719;81;20896;-72
2021/12/16 10:04:49;;;;;;;16.82;13.10;;;;;;;1.88;76.84;101614.00;1757910;80;21421;-72
2021/12/16 10:07:21;;;;;;;18.85;11.93;;;;;;;1.91;76.86;101606.65;1757837;81;21794;-71
2021/12/16 10:09:51;;;;;;;14.87;11.88;;;;;;;1.89;76.71;101607.98;1757699;81;21441;-72
2021/12/16 10:12:24;;;;;;;14.47;11.40;;;;;;;1.84;76.76;101604.55;1757788;81;20936;-71
2021/12/16 10:17:23;;;;;;;16.15;12.73;;;;;;;1.78;76.69;101594.24;1757770;80;21088;-71
2021/12/16 10:19:48;;;;;;;17.82;12.05;;;;;;;1.78;76.83;101591.25;1757543;81;21146;-71
2021/12/16 10:22:38;;;;;;;16.32;11.80;;;;;;;1.77;76.83;101584.78;1757826;80;20944;-72
2021/12/16 10:25:41;;;;;;;14.18;10.95;;;;;;;1.76;76.96;101591.69;1757745;81;21470;-72
2021/12/16 10:28:17;;;;;;;13.28;10.78;;;;;;;1.79;76.95;101584.34;1757973;81;20928;-71
2021/12/16 10:31:04;;;;;;;15.28;10.08;;;;;;;1.82;76.82;101584.30;1757924;81;20928;-73
2021/12/16 10:33:36;;;;;;;15.85;10.63;;;;;;;1.82;76.81;101585.19;1757743;81;21722;-71
2021/12/16 10:36:11;;;;;;;19.82;14.58;;;;;;;1.86;76.89;101580.83;1757484;81;20877;-71
2021/12/16 10:38:55;;;;;;;14.60;10.20;;;;;;;1.91;76.85;101580.34;1757851;81;20901;-71
2021/12/16 10:41:53;;;;;;;13.78;10.78;;;;;;;1.90;76.61;101567.00;1757800;81;21443;-72
2021/12/16 10:44:27;;;;;;;12.47;8.93;;;;;;;1.89;76.77;101563.13;1757865;81;21453;-72
2021/12/16 10:47:01;;;;;;;13.68;10.08;;;;;;;1.89;76.55;101563.13;1757768;81;22016;-72
2021/12/16 10:49:37;;;;;;;12.70;8.73;;;;;;;1.88;76.38;101567.45;1757743;81;21052;-70
2021/12/16 10:52:09;;;;;;;13.65;9.08;;;;;;;1.83;76.08;101564.91;1757327;81;20923;-72
2021/12/16 10:54:38;;;;;;;13.98;8.75;;;;;;;1.74;76.25;101557.67;1756640;80;20940;-72
2021/12/16 10:57:14;;;;;;;12.03;8.45;;;;;;;1.68;76.42;101550.81;1757700;81;20928;-71
2021/12/16 10:59:54;;;;;;;21.35;13.32;;;;;;;1.64;76.38;101549.96;1758065;81;21146;-72
2021/12/16 11:02:30;;;;;;;19.40;12.45;;;;;;;1.61;76.42;101550.00;1757693;81;20876;-77
2021/12/16 11:05:04;;;;;;;15.60;10.80;;;;;;;1.59;76.54;101550.89;1758132;80;21405;-76
2021/12/16 11:07:37;;;;;;;16.07;9.65;;;;;;;1.57;76.72;101548.75;1754144;81;20901;-78
2021/12/16 11:10:29;;;;;;;17.07;10.55;;;;;;;1.55;76.83;101538.41;1757872;81;20911;-78
2021/12/16 11:13:09;;;;;;;14.23;9.50;;;;;;;1.49;76.86;101532.42;1757801;81;21146;-76
2021/12/16 11:15:46;;;;;;;18.55;10.00;;;;;;;1.37;77.04;101539.41;1757650;80;20900;-77
2021/12/16 11:18:17;;;;;;;14.28;9.78;;;;;;;1.30;77.30;101540.33;1757791;81;21365;-77
2021/12/16 11:21:07;;;;;;;17.95;10.88;;;;;;;1.31;77.54;101535.59;1757789;80;20897;-77
2021/12/16 11:23:38;;;;;;;18.30;10.90;;;;;;;1.34;77.77;101536.00;1757688;81;21413;-78
2021/12/16 11:26:09;;;;;;;16.73;10.35;;;;;;;1.42;77.75;101538.08;1757461;80;21100;-78
2021/12/16 11:28:42;;;;;;;23.30;14.05;;;;;;;1.44;77.46;101545.39;1757809;81;20979;-77
2021/12/16 11:31:15;;;;;;;19.60;11.40;;;;;;;1.42;77.63;101541.95;1757739;80;20932;-78
2021/12/16 11:33:49;;;;;;;13.68;8.28;;;;;;;1.48;77.76;101539.33;1757982;81;20967;-77
2021/12/16 11:36:25;;;;;;;12.78;7.87;;;;;;;1.57;77.67;101542.28;1757704;81;21481;-79
2021/12/16 11:39:20;;;;;;;11.40;7.25;;;;;;;1.57;77.30;101537.11;1757693;81;21130;-79
2021/12/16 11:41:56;;;;;;;12.47;7.72;;;;;;;1.51;77.14;101541.88;1758092;81;20888;-78
2021/12/16 11:44:25;;;;;;;14.85;7.55;;;;;;;1.51;77.13;101543.61;1758026;81;21540;-78
2021/12/16 11:47:01;;;;;;;16.17;9.38;;;;;;;1.51;77.01;101541.03;1758023;81;20939;-77
2021/12/16 11:49:38;;;;;;;14.93;8.90;;;;;;;1.47;77.00;101538.92;1758032;80;21027;-76
2021/12/16 11:52:13;;;;;;;14.10;9.13;;;;;;;1.49;76.93;101533.31;1757948;80;21227;-78
2021/12/16 11:54:54;;;;;;;16.73;8.63;;;;;;;1.52;77.06;101525.96;1758053;81;20952;-77
2021/12/16 11:57:37;;;;;;;14.60;8.15;;;;;;;1.59;77.32;101530.20;1745977;81;21496;-78
2021/12/16 12:00:18;;;;;;;17.45;10.32;;;;;;;1.69;77.45;101524.09;1744952;81;20904;-79
2021/12/16 12:02:52;;;;;;;15.50;9.20;;;;;;;1.77;76.96;101515.81;1745264;80;21011;-80
2021/12/16 12:05:27;;;;;;;13.45;8.60;;;;;;;1.77;77.20;101509.35;1744733;81;21162;-74
2021/12/16 12:07:58;;;;;;;16.82;10.40;;;;;;;1.76;76.97;101505.06;1744742;80;20885;-69
2021/12/16 12:10:50;;;;;;;15.93;9.75;;;;;;;1.73;77.06;101494.73;1744549;81;21517;-69
2021/12/16 12:13:26;;;;;;;16.55;10.25;;;;;;;1.70;76.81;101497.80;1744967;81;20945;-71
2021/12/16 12:16:15;;;;;;;16.52;10.48;;;;;;;1.63;77.12;101491.83;1744528;81;20932;-71
2021/12/16 12:18:52;;;;;;;19.57;9.85;;;;;;;1.62;77.30;101490.98;1744459;82;22025;-69
2021/12/16 12:21:44;;;;;;;15.25;9.08;;;;;;;1.62;77.58;101488.80;1744418;82;20960;-70
2021/12/16 12:24:36;;;;;;;14.73;9.55;;;;;;;1.66;77.41;101484.03;1744825;81;21054;-70
2021/12/16 12:27:12;;;;;;;17.95;9.93;;;;;;;1.66;77.46;101487.47;1744429;82;21411;-70
2021/12/16 12:29:54;;;;;;;24.00;14.28;;;;;;;1.65;77.31;101481.89;1744547;82;20928;-70
2021/12/16 12:32:26;;;;;;;16.17;9.45;;;;;;;1.61;77.09;101480.20;1744495;80;21143;-71
2021/12/16 12:34:57;;;;;;;17.17;10.88;;;;;;;1.50;77.10;101467.81;1744432;81;20861;-71
2021/12/16 12:37:28;;;;;;;16.23;9.45;;;;;;;1.48;77.36;101468.70;1744631;82;20940;-71
2021/12/16 12:40:02;;;;;;;18.48;10.60;;;;;;;1.49;77.53;101469.98;1744453;82;20944;-71
2021/12/16 12:42:29;;;;;;;13.72;9.23;;;;;;;1.51;77.81;101470.80;1744542;81;20932;-71
2021/12/16 12:44:56;;;;;;;15.60;9.30;;;;;;;1.57;77.92;101466.02;1744488;82;21086;-71
2021/12/16 12:47:27;;;;;;;17.82;9.88;;;;;;;1.60;77.89;101464.28;1744548;81;20921;-72
2021/12/16 12:50:10;;;;;;;15.35;9.50;;;;;;;1.62;77.72;101461.66;1744521;81;20842;-72
2021/12/16 12:52:37;;;;;;;14.03;10.05;;;;;;;1.64;77.71;101466.38;1690695;83;20916;-70
2021/12/16 12:55:16;;;;;;;16.00;9.78;;;;;;;1.59;77.44;101469.02;1744716;82;21304;-70
2021/12/16 12:57:44;;;;;;;11.88;8.00;;;;;;;1.53;77.45;101467.77;1743698;80;21164;-72
2021/12/16 13:00:31;;;;;;;14.00;7.62;;;;;;;1.40;77.38;101459.30;1744572;82;20936;-74
2021/12/16 13:03:11;;;;;;;14.28;8.50;;;;;;;1.37;77.59;101468.78;1744352;80;20932;-71
2021/12/16 13:05:38;;;;;;;13.10;9.13;;;;;;;1.34;77.78;101461.07;1744222;80;20897;-70
2021/12/16 13:08:11;;;;;;;14.95;9.93;;;;;;;1.33;77.89;101470.97;1744832;82;21402;-71
2021/12/16 13:10:44;;;;;;;14.95;7.92;;;;;;;1.34;77.94;101471.41;1708772;84;21151;-71
2021/12/16 13:27:40;;;;;;;21.00;13.15;;;;;;;1.37;78.12;101455.42;1744755;82;20865;-70
2021/12/16 13:32:46;;;;;;;20.65;13.00;;;;;;;1.36;78.25;101452.43;1744589;82;20905;-73
2021/12/16 13:37:55;;;;;;;17.48;12.33;;;;;;;1.36;78.06;101456.30;1743337;81;20991;-71
2021/12/16 13:40:30;;;;;;;20.50;11.65;;;;;;;1.26;77.89;101452.52;1744696;82;21411;-70
2021/12/16 13:43:01;;;;;;;;;;;;;;;1.15;78.06;101452.59;1747143;81;20988;-71
2021/12/16 13:45:46;;;;;;;18.80;11.78;;;;;;;1.06;78.27;101445.77;1744699;81;20077;-70
2021/12/16 13:49:00;;;;;;;22.75;12.40;;;;;;;1.03;78.80;101451.81;1744078;81;20932;-70
2021/12/16 14:03:00;;;;;;;25.05;14.20;;;;;;;1.20;79.51;101454.70;1744732;81;20885;-72
2021/12/16 14:05:41;;;;;;;21.02;13.38;;;;;;;1.17;78.89;101448.27;1744244;81;21530;-71
2021/12/16 14:08:07;;;;;;;19.12;13.90;;;;;;;1.05;78.93;101439.34;1744249;81;21372;-71
2021/12/16 14:10:46;;;;;;;23.32;12.88;;;;;;;0.94;78.93;101444.58;1744760;82;20904;-71
2021/12/16 14:16:56;;;;;;;18.65;10.98;;;;;;;0.78;79.34;101447.26;1744514;82;20988;-72
2021/12/16 14:25:38;;;;;;;31.42;18.65;;;;;;;0.80;80.18;101445.53;1744382;81;20928;-72
2021/12/16 14:39:49;;;;;;;19.98;12.30;;;;;;;0.93;79.91;101444.14;1744800;81;20849;-73
2021/12/16 14:42:48;;;;;;;22.42;13.25;;;;;;;0.88;79.90;101440.30;1743709;81;20980;-72
2021/12/16 14:48:10;;;;;;;20.90;12.65;;;;;;;0.82;80.25;101436.05;1744455;81;22110;-72
2021/12/16 14:50:41;;;;;;;18.12;12.05;;;;;;;0.80;80.22;101434.32;1744146;81;21394;-71
2021/12/16 14:53:19;;;;;;;16.35;11.80;;;;;;;0.78;80.59;101429.63;1744539;81;20893;-73
2021/12/16 14:55:47;;;;;;;18.87;12.18;;;;;;;0.82;80.64;101429.59;1744853;82;21016;-71
2021/12/16 14:58:14;;;;;;;21.05;12.58;;;;;;;0.83;80.54;101423.99;1755269;81;21390;-71
2021/12/16 15:00:47;;;;;;;20.12;13.43;;;;;;;0.80;80.36;101418.42;1757943;81;21185;-72